Data for 09/10/2009

Time Sea-Level Adjusted Pressure Absolute Pressure Temperature Relative Humidity Dew Point   
(mb) (inHg) (mb) (inHg) (C) (F) (%) (C) (F)
00:05 1022 30.18 851 25.13 13.4 56.1 35 -1.8 28.7
00:10 1022 30.18 851 25.13 13.1 55.6 36 -1.6 29.1
00:15 1022 30.18 851 25.13 13.1 55.5 34 -2.3 27.9
00:20 1022 30.18 851 25.13 13.2 55.7 35 -1.9 28.5
00:25 1022 30.18 851 25.13 13 55.3 36 -1.6 29.1
00:30 1022 30.18 851 25.13 13 55.5 32 -3.1 26.4
00:35 1022 30.18 851 25.13 13.6 56.5 31 -3 26.7
00:40 1022 30.18 851 25.13 13.5 56.2 32 -2.9 26.7
00:45 1022 30.18 851 25.13 13.2 55.8 32 -3 26.7
00:50 1022 30.18 851 25.13 13 55.5 33 -2.8 27
00:55 1022 30.18 851 25.13 12.8 55 33 -3.1 26.3
01:00 1022 30.18 851 25.13 13 55.4 32 -3.1 26.4
01:05 1022 30.18 851 25.13 13 55.4 33 -3 26.5
01:10 1022 30.18 851 25.13 12.8 55 33 -3 26.6
01:15 1022 30.18 851 25.13 12.7 54.8 33 -3.1 26.4
01:20 1022 30.18 851 25.13 12.9 55.2 32 -3.3 26.1
01:25 1022 30.18 851 25.13 12.9 55.3 33 -3.1 26.5
01:30 1022 30.18 851 25.13 12.8 55 33 -3 26.6
01:35 1022 30.18 851 25.13 12.6 54.7 33 -3.1 26.4
01:40 1022 30.18 851 25.13 12.7 54.9 32 -3.5 25.7
01:45 1022 30.18 851 25.13 13 55.4 31 -3.7 25.3
01:50 1022 30.18 851 25.13 13.5 56.3 30 -3.9 25
01:55 1022 30.18 851 25.13 14 57.2 28 -3.9 24.9
02:00 1022 30.18 851 25.13 14.1 57.5 29 -3.7 25.3
02:05 1022 30.18 851 25.13 14 57.2 30 -3.3 26.1
02:10 1022 30.18 851 25.13 14 57.2 29 -3.7 25.4
02:15 1022 30.18 851 25.13 14.1 57.3 30 -3.2 26.2
02:20 1022 30.18 851 25.13 13.8 56.8 32 -2.5 27.5
02:25 1022 30.18 851 25.13 13.2 55.8 34 -2.4 27.8
02:30 1022 30.18 851 25.13 13.2 55.8 32 -3.2 26.3
02:35 1022 30.18 852 25.16 13.5 56.2 33 -2.5 27.6
02:40 1022 30.18 851 25.13 13.2 55.7 35 -1.8 28.8
02:45 1022 30.18 851 25.13 12.8 55 33 -2.9 26.8
02:50 1022 30.18 851 25.13 12.7 54.9 36 -1.7 28.9
02:55 1022 30.18 851 25.13 12 53.5 38 -1.8 28.7
03:00 1022 30.18 851 25.13 11.8 53.2 40 -1.4 29.5
03:05 1022 30.18 851 25.13 11.6 52.8 41 -1.2 29.8
03:10 1022 30.18 852 25.16 11.4 52.4 41 -1.5 29.3
03:15 1022 30.18 852 25.16 11.5 52.6 38 -2.2 28
03:20 1022 30.18 852 25.16 12 53.6 37 -2.1 28.2
03:25 1023 30.21 852 25.16 12 53.6 38 -2 28.4
03:30 1023 30.21 852 25.16 11.9 53.5 40 -1.3 29.7
03:35 1023 30.21 852 25.16 11.4 52.6 40 -1.6 29.2
03:40 1023 30.21 852 25.16 11.6 52.8 37 -2.4 27.6
03:45 1023 30.21 852 25.16 11.7 53.1 40 -1.3 29.7
03:50 1023 30.21 852 25.16 11.3 52.4 41 -1.5 29.4
03:55 1023 30.21 852 25.16 11.2 52.2 41 -1.6 29.1
04:00 1023 30.21 852 25.16 11 51.8 42 -1.3 29.6
04:05 1023 30.21 852 25.16 10.5 50.9 44 -1.3 29.7
04:10 1023 30.21 852 25.16 10.4 50.7 44 -1.4 29.5
04:15 1023 30.21 852 25.16 10.5 50.9 40 -2.4 27.6
04:20 1023 30.21 852 25.16 11.1 51.9 41 -1.6 29.2
04:25 1023 30.21 852 25.16 10.9 51.5 42 -1.6 29.2
04:30 1023 30.21 852 25.16 10.5 50.8 47 -0.3 31.4
04:35 1023 30.21 852 25.16 9.7 49.4 44 -1.8 28.7
04:40 1023 30.21 852 25.16 10.3 50.6 38 -3.3 26.1
04:45 1023 30.21 852 25.16 10.8 51.4 39 -2.5 27.4
04:50 1023 30.21 852 25.16 10.5 50.9 39 -2.9 26.8
04:55 1023 30.21 852 25.16 10.7 51.3 40 -2.4 27.7
05:00 1023 30.21 852 25.16 10.6 51.1 41 -2 28.4
05:05 1023 30.21 852 25.16 10.3 50.6 43 -1.7 28.9
05:10 1023 30.21 852 25.16 9.9 49.8 46 -1.2 29.9
05:15 1023 30.21 853 25.19 9.7 49.4 43 -2.4 27.7
05:20 1023 30.21 853 25.19 10.8 51.5 37 -3.2 26.3
05:25 1023 30.21 853 25.19 11.4 52.6 37 -2.7 27.1
05:30 1023 30.21 853 25.19 11.4 52.6 38 -2.2 28.1
05:35 1024 30.24 853 25.19 10.9 51.7 41 -1.7 29
05:40 1024 30.24 853 25.19 10.2 50.3 43 -1.7 28.9
05:45 1024 30.24 853 25.19 10.4 50.8 39 -3 26.5
05:50 1024 30.24 853 25.19 10.9 51.7 38 -2.8 26.9
05:55 1024 30.24 853 25.19 10.9 51.7 37 -3 26.6
06:00 1024 30.24 853 25.19 10.7 51.2 39 -2.6 27.3
06:05 1024 30.24 853 25.19 10.2 50.3 41 -2.6 27.4
06:10 1024 30.24 853 25.19 10.1 50.2 39 -3.3 26
06:15 1024 30.24 853 25.19 10.8 51.4 40 -2.1 28.2
06:20 1023 30.21 853 25.19 10.6 51.1 39 -2.7 27.1
06:25 1024 30.24 853 25.19 10.8 51.4 37 -3.2 26.2
06:30 1023 30.21 853 25.19 11 51.7 38 -2.8 27
06:35 1023 30.21 853 25.19 10.8 51.5 39 -2.7 27.2
06:40 1023 30.21 853 25.19 10.7 51.2 39 -2.5 27.5
06:45 1023 30.21 853 25.19 10.7 51.2 38 -3 26.7
06:50 1023 30.21 853 25.19 10.8 51.4 39 -2.8 27
06:55 1023 30.21 853 25.19 10.8 51.5 39 -2.6 27.3
07:00 1023 30.21 852 25.16 10.8 51.4 41 -1.9 28.6
07:05 1023 30.21 852 25.16 10.2 50.4 43 -1.7 28.9
07:10 1023 30.21 852 25.16 10 50 43 -2.1 28.2
07:15 1023 30.21 852 25.16 10.1 50.1 42 -2.3 27.8
07:20 1023 30.21 852 25.16 10 50 44 -1.8 28.8
07:25 1023 30.21 853 25.19 10.2 50.4 40 -2.7 27.1
07:30 1023 30.21 853 25.19 10.4 50.7 41 -2.3 27.8
07:35 1024 30.24 853 25.19 10.3 50.6 40 -2.7 27.1
07:40 1024 30.24 853 25.19 10.5 50.9 39 -2.9 26.7
07:45 1024 30.24 853 25.19 11 51.9 37 -3.1 26.5
07:50 1024 30.24 853 25.19 11.5 52.6 37 -2.6 27.4
07:55 1024 30.24 853 25.19 11.7 53.1 37 -2.4 27.6
08:00 1024 30.24 853 25.19 11.8 53.2 38 -1.9 28.6
08:05 1024 30.24 853 25.19 12 53.5 38 -1.7 29
08:10 1024 30.24 853 25.19 12.4 54.3 36 -2 28.4
08:15 1024 30.24 853 25.19 12.8 55 38 -1.2 29.8
08:20 1024 30.24 853 25.19 12.8 55 35 -2.2 28.1
08:25 1024 30.24 853 25.19 13.5 56.3 33 -2.5 27.5
08:30 1024 30.24 853 25.19 13.8 56.8 35 -1.4 29.5
08:35 1024 30.24 853 25.19 14.2 57.5 37 -0.2 31.7
08:40 1024 30.24 854 25.22 14.3 57.7 36 -0.3 31.4
08:45 1025 30.27 854 25.22 15 59 36 0.2 32.4
08:50 1025 30.27 854 25.22 16 60.7 34 0.3 32.6
08:55 1025 30.27 854 25.22 16.3 61.3 38 1.9 35.5
09:00 1025 30.27 854 25.22 15.8 60.4 39 1.8 35.2
09:05 1025 30.27 854 25.22 15.5 60 40 2.1 35.7
09:10 1025 30.27 854 25.22 15.4 59.7 40 2 35.5
09:15 1025 30.27 854 25.22 16.4 61.6 37 1.7 35.1
09:20 1025 30.27 854 25.22 17.3 63.1 35 1.8 35.2
09:25 1025 30.27 854 25.22 17.6 63.7 34 1.8 35.3
09:30 1025 30.27 854 25.22 17.9 64.1 31 0.8 33.4
09:35 1025 30.27 854 25.22 18.6 65.4 30 0.8 33.4
09:40 1025 30.27 854 25.22 17.7 63.8 32 0.9 33.6
09:45 1025 30.27 854 25.22 17.1 62.7 33 0.8 33.5
09:50 1025 30.27 854 25.22 17.1 62.8 33 0.7 33.3
09:55 1025 30.27 854 25.22 17.4 63.4 33 1.2 34.1
10:00 1025 30.27 854 25.22 16.7 62.1 33 0.5 32.9
10:05 1025 30.27 854 25.22 16.9 62.4 31 -0.1 31.9
10:10 1025 30.27 854 25.22 17.3 63.1 29 -0.7 30.7
10:15 1025 30.27 854 25.22 18.5 65.2 28 -0 32
10:20 1025 30.27 854 25.22 19.4 66.9 27 -0 31.9
10:25 1025 30.27 854 25.22 20.1 68.2 26 0.3 32.6
10:30 1025 30.27 854 25.22 20 67.9 26 -0.1 31.8
10:35 1025 30.27 854 25.22 19.9 67.7 24 -0.9 30.4
10:40 1025 30.27 854 25.22 20.1 68.3 23 -1.2 29.8
10:45 1025 30.27 854 25.22 20.4 68.7 23 -1.2 29.8
10:50 1025 30.27 854 25.22 20.5 69 22 -2 28.4
10:55 1025 30.27 854 25.22 20.9 69.6 21 -2.3 27.9
11:00 1025 30.27 854 25.22 20.5 68.9 23 -1 30.1
11:05 1025 30.27 854 25.22 20.8 69.5 23 -1 30.2
11:10 1025 30.27 854 25.22 21 69.8 21 -1.8 28.7
11:15 1025 30.27 854 25.22 21.6 70.8 19 -2.7 27.1
11:20 1025 30.27 854 25.22 21.6 71 20 -2.2 28
11:25 1025 30.27 854 25.22 22 71.6 20 -1.7 28.9
11:30 1025 30.27 854 25.22 22.5 72.4 22 0 32
11:35 1025 30.27 854 25.22 22.4 72.3 21 -1.1 30
11:40 1025 30.27 854 25.22 22.6 72.6 20 -1.5 29.3
11:45 1025 30.27 854 25.22 22 71.6 20 -1.9 28.6
11:50 1025 30.27 854 25.22 22 71.7 20 -1.6 29.1
11:55 1025 30.27 854 25.22 22.3 72.1 21 -1.2 29.9
12:00 1025 30.27 854 25.22 22.6 72.7 19 -1.7 29
12:05 1025 30.27 854 25.22 23 73.4 20 -1 30.2
12:10 1025 30.27 854 25.22 23.1 73.5 20 -0.9 30.4
12:15 1025 30.27 854 25.22 22.5 72.5 20 -1.3 29.6
12:20 1025 30.27 854 25.22 21.3 70.4 21 -1.9 28.6
12:25 1025 30.27 854 25.22 21.5 70.8 21 -1.4 29.5
12:30 1025 30.27 854 25.22 22.6 72.7 20 -1.4 29.4
12:35 1025 30.27 854 25.22 23.1 73.5 20 -1.2 29.8
12:40 1025 30.27 854 25.22 23.3 74 19 -1.1 30
12:45 1025 30.27 854 25.22 23.7 74.7 20 -0.3 31.5
12:50 1025 30.27 854 25.22 23.4 74.1 18 -1.7 28.9
12:55 1025 30.27 854 25.22 23.5 74.3 19 -1.2 29.9
13:00 1025 30.27 854 25.22 23.6 74.5 17 -2.4 27.6
13:05 1025 30.27 854 25.22 22.9 73.3 18 -2.7 27.2
13:10 1025 30.27 854 25.22 23.7 74.7 18 -1.4 29.4
13:15 1025 30.27 854 25.22 23.9 75 18 -1.8 28.7
13:20 1025 30.27 854 25.22 23.8 74.9 17 -2.4 27.7
13:25 1024 30.24 854 25.22 24.1 75.4 18 -1.2 29.8
13:30 1024 30.24 854 25.22 24.1 75.5 18 -1.6 29.2
13:35 1024 30.24 854 25.22 24 75.3 17 -2.5 27.5
13:40 1024 30.24 854 25.22 24.4 75.9 17 -1.9 28.5
13:45 1024 30.24 854 25.22 24.7 76.4 17 -2.1 28.2
13:50 1024 30.24 854 25.22 25.3 77.5 17 -1.6 29.2
13:55 1024 30.24 853 25.19 24.8 76.6 18 -1.2 29.9
14:00 1024 30.24 853 25.19 25.7 78.3 15 -2.5 27.5
14:05 1024 30.24 853 25.19 25.7 78.3 16 -1.5 29.2
14:10 1024 30.24 853 25.19 25.2 77.4 18 -0.7 30.7
14:15 1024 30.24 853 25.19 25.2 77.3 17 -1.5 29.3
14:20 1024 30.24 853 25.19 25.3 77.6 17 -1.2 29.8
14:25 1024 30.24 853 25.19 24.8 76.7 18 -0.8 30.6
14:30 1024 30.24 853 25.19 24.3 75.7 18 -1.6 29
14:35 1024 30.24 853 25.19 24.1 75.3 19 -0.9 30.5
14:40 1024 30.24 853 25.19 24.5 76.1 18 -0.8 30.6
14:45 1024 30.24 853 25.19 24.4 75.9 18 -0.9 30.3
14:50 1024 30.24 854 25.22 24.2 75.6 19 -0.3 31.4
14:55 1024 30.24 854 25.22 24.2 75.6 19 -0.6 31
15:00 1024 30.24 854 25.22 24 75.1 20 -0.1 31.8
15:05 1024 30.24 854 25.22 23.4 74.1 20 -0.8 30.5
15:10 1024 30.24 854 25.22 23.3 73.9 20 -0.9 30.5
15:15 1024 30.24 854 25.22 23.7 74.7 20 -0.4 31.3
15:20 1024 30.24 854 25.22 23.3 74 20 -0.8 30.5
15:25 1024 30.24 854 25.22 23.2 73.7 19 -1.2 29.8
15:30 1024 30.24 854 25.22 23 73.3 21 -0.4 31.3
15:35 1025 30.27 854 25.22 23.1 73.6 21 -0.3 31.5
15:40 1024 30.24 854 25.22 23.1 73.5 20 -1 30.2
15:45 1025 30.27 854 25.22 23.2 73.7 20 -0.6 30.9
15:50 1025 30.27 854 25.22 22.8 73.1 20 -1 30.1
15:55 1025 30.27 854 25.22 22.7 72.9 20 -1.3 29.7
16:00 1025 30.27 854 25.22 22.8 73 21 -0.3 31.4
16:05 1025 30.27 854 25.22 23 73.4 20 -0.9 30.3
16:10 1025 30.27 854 25.22 23 73.4 20 -1 30.2
16:15 1025 30.27 854 25.22 23.4 74 18 -1.8 28.8
16:20 1025 30.27 854 25.22 23.2 73.8 19 -1.5 29.3
16:25 1025 30.27 854 25.22 22.8 73.1 20 -1.4 29.5
16:30 1025 30.27 854 25.22 22.7 72.8 20 -1.5 29.3
16:35 1025 30.27 854 25.22 22.5 72.5 20 -1.3 29.6
16:40 1025 30.27 854 25.22 22.7 72.9 20 -1.4 29.4
16:45 1025 30.27 854 25.22 22.9 73.3 20 -1.2 29.8
16:50 1025 30.27 854 25.22 22.9 73.1 19 -1.7 28.9
16:55 1025 30.27 854 25.22 22.8 73 19 -2 28.5
17:00 1025 30.27 854 25.22 22.7 72.9 19 -1.7 29
17:05 1025 30.27 854 25.22 22.6 72.7 18 -2.8 26.9
17:10 1025 30.27 854 25.22 22.5 72.6 18 -2.5 27.5
17:15 1025 30.27 854 25.22 22.6 72.8 17 -3.2 26.3
17:20 1025 30.27 854 25.22 22.6 72.7 18 -2.9 26.7
17:25 1025 30.27 854 25.22 22.7 72.9 18 -2.9 26.8
17:30 1025 30.27 854 25.22 22.8 73.1 17 -3.6 25.5
17:35 1025 30.27 854 25.22 22.7 72.8 15 -4.9 23.2
17:40 1025 30.27 854 25.22 22.8 73 16 -4.5 24
17:45 1025 30.27 855 25.25 23 73.5 15 -4.9 23.1
17:50 1025 30.27 855 25.25 23.3 73.9 15 -4.5 23.9
17:55 1025 30.27 855 25.25 23.8 74.8 15 -4.2 24.5
18:00 1025 30.27 855 25.25 23.9 74.9 15 -4.5 24
18:05 1025 30.27 855 25.25 24 75.1 15 -3.9 24.9
18:10 1026 30.3 855 25.25 24.2 75.6 15 -4.2 24.4
18:15 1026 30.3 855 25.25 24 75.1 16 -3 26.6
18:20 1026 30.3 855 25.25 23.1 73.7 17 -3.1 26.4
18:25 1026 30.3 855 25.25 22.4 72.4 18 -3.2 26.2
18:30 1026 30.3 855 25.25 22 71.7 18 -3.4 26
18:35 1026 30.3 855 25.25 22.1 71.7 17 -3.6 25.4
18:40 1026 30.3 855 25.25 22 71.6 19 -2.5 27.4
18:45 1026 30.3 855 25.25 21.7 71.1 20 -2.3 27.8
18:50 1026 30.3 855 25.25 21.4 70.5 20 -2.7 27.2
18:55 1026 30.3 855 25.25 21.1 70.1 21 -2 28.5
19:00 1026 30.3 855 25.25 20.9 69.7 21 -1.9 28.6
19:05 1026 30.3 855 25.25 20.9 69.6 22 -1.7 28.9
19:10 1026 30.3 855 25.25 20.7 69.3 22 -1.4 29.4
19:15 1026 30.3 855 25.25 20.7 69.3 23 -1 30.2
19:20 1026 30.3 855 25.25 20.6 69 27 1.1 34.1
19:25 1026 30.3 855 25.25 20.2 68.4 27 0.6 33
19:30 1026 30.3 855 25.25 20 68 21 -2.8 26.9
19:35 1026 30.3 855 25.25 20.1 68.1 23 -1.8 28.8
19:40 1026 30.3 855 25.25 20 68 23 -1.6 29.1
19:45 1026 30.3 855 25.25 19.7 67.5 25 -0.9 30.3
19:50 1026 30.3 856 25.28 19 66.2 27 -0.2 31.6
19:55 1026 30.3 856 25.28 18.2 64.8 28 -0.3 31.4
20:00 1026 30.3 856 25.28 17.8 64.1 30 0.3 32.5
20:05 1026 30.3 856 25.28 17.4 63.3 29 -0.6 30.9
20:10 1027 30.33 856 25.28 17.1 62.7 31 -0.2 31.6
20:15 1027 30.33 856 25.28 16.6 61.9 31 -0.3 31.5
20:20 1027 30.33 856 25.28 16.2 61.1 32 -0.3 31.5
20:25 1027 30.33 856 25.28 16.2 61.2 33 -0.1 31.8
20:30 1027 30.33 856 25.28 15.9 60.7 36 1 33.9
20:35 1027 30.33 856 25.28 15.5 59.9 35 0.2 32.3
20:40 1027 30.33 856 25.28 15.1 59.2 39 1.2 34.2
20:45 1027 30.33 856 25.28 15.1 59.1 35 -0.2 31.7
20:50 1027 30.33 856 25.28 15.1 59.2 38 1 33.7
20:55 1027 30.33 856 25.28 14.8 58.7 39 1.3 34.3
21:00 1027 30.33 856 25.28 14.4 58 37 0.2 32.3
21:05 1027 30.33 857 25.31 14.1 57.4 40 0.9 33.6
21:10 1027 30.33 856 25.28 13.4 56.1 39 -0.1 31.8
21:15 1027 30.33 856 25.28 13.9 57.1 35 -1.2 29.9
21:20 1027 30.33 857 25.31 14.3 57.7 34 -1.4 29.5
21:25 1027 30.33 857 25.31 14.5 58 34 -1.3 29.7
21:30 1028 30.36 857 25.31 14.5 58.1 33 -1.4 29.4
21:35 1028 30.36 857 25.31 14.5 58 34 -1.2 29.8
21:40 1028 30.36 857 25.31 14.3 57.8 34 -1.3 29.7
21:45 1028 30.36 857 25.31 14 57.2 36 -0.8 30.5
21:50 1028 30.36 857 25.31 13.5 56.3 38 -0.6 31
21:55 1028 30.36 857 25.31 13.2 55.7 35 -1.9 28.5
22:00 1028 30.36 857 25.31 13.5 56.2 35 -1.7 29
22:05 1028 30.36 857 25.31 13.4 56.2 35 -1.6 29.1
22:10 1028 30.36 857 25.31 13.6 56.4 34 -2.1 28.3
22:15 1028 30.36 857 25.31 14.1 57.4 32 -2.4 27.7
22:20 1028 30.36 857 25.31 14.7 58.4 31 -2 28.3
22:25 1028 30.36 857 25.31 14.8 58.6 32 -1.8 28.8
22:30 1028 30.36 857 25.31 14.6 58.3 32 -1.6 29.1
22:35 1028 30.36 857 25.31 14.9 58.9 31 -2 28.4
22:40 1028 30.36 857 25.31 15.9 60.6 29 -2 28.5
22:45 1028 30.36 857 25.31 16.3 61.4 28 -1.9 28.5
22:50 1028 30.36 857 25.31 16.1 61 29 -1.8 28.7
22:55 1028 30.36 857 25.31 15.6 60.1 31 -1.3 29.7
23:00 1028 30.36 857 25.31 15.2 59.4 32 -1.2 29.8
23:05 1028 30.36 857 25.31 15 59.1 33 -1.1 30.1
23:10 1028 30.36 857 25.31 14.9 58.8 33 -0.9 30.3
23:15 1028 30.36 857 25.31 14.8 58.7 34 -0.9 30.4
23:20 1028 30.36 857 25.31 14.8 58.7 34 -0.7 30.7
23:25 1028 30.36 857 25.31 14.8 58.6 35 -0.5 31.1
23:30 1028 30.36 857 25.31 14.6 58.3 35 -0.5 31.1
23:35 1028 30.36 857 25.31 14.5 58.1 36 -0.4 31.2
23:40 1028 30.36 858 25.34 14.4 58 36 -0.4 31.2
23:45 1028 30.36 858 25.34 14.4 58 36 -0.4 31.2
23:50 1028 30.36 858 25.34 14.3 57.8 36 -0.4 31.2
23:55 1028 30.36 858 25.34 14.3 57.7 36 -0.4 31.2
24:00 1028 30.36 858 25.34 14.1 57.4 37 -0.2 31.6